createdAt,value
2018-08-24T00:00:32.678Z,100106.36
2018-08-24T00:03:35.890Z,100111.80
2018-08-24T00:06:41.520Z,100099.17
2018-08-24T00:09:44.740Z,100097.10
2018-08-24T00:12:48.710Z,100087.83
2018-08-24T00:15:51.981Z,100094.13
2018-08-24T00:18:55.276Z,100094.61
2018-08-24T00:21:58.463Z,100090.85
2018-08-24T00:25:01.679Z,100086.66
2018-08-24T00:28:04.927Z,100077.02
2018-08-24T00:31:08.225Z,100073.98
2018-08-24T00:34:11.424Z,100070.76
2018-08-24T00:37:14.614Z,100068.73
2018-08-24T00:40:17.815Z,100071.56
2018-08-24T00:43:21.208Z,100069.98
2018-08-24T00:46:25.169Z,100076.38
2018-08-24T00:49:28.424Z,100070.94
2018-08-24T00:52:31.629Z,100069.85
2018-08-24T00:55:35.705Z,100072.58
2018-08-24T00:58:39.381Z,100069.41
2018-08-24T01:01:42.544Z,100060.95
2018-08-24T01:04:45.709Z,100046.52
2018-08-24T01:07:54.194Z,100037.69
2018-08-24T01:10:57.417Z,100033.29
2018-08-24T01:14:00.643Z,100035.47
2018-08-24T01:17:09.166Z,100037.45
2018-08-24T01:20:12.349Z,100033.31
2018-08-24T01:23:15.560Z,100033.39
2018-08-24T01:26:23.793Z,100032.48
2018-08-24T01:29:27.011Z,100035.31
2018-08-24T01:32:30.224Z,100029.66
2018-08-24T01:35:34.098Z,100026.36
2018-08-24T01:38:37.266Z,100025.67
2018-08-24T01:41:40.453Z,100019.34
2018-08-24T01:44:43.631Z,100024.33
2018-08-24T01:47:46.830Z,100022.30
2018-08-24T01:50:50.015Z,100020.88
2018-08-24T01:53:53.282Z,100023.65
2018-08-24T01:56:56.508Z,100016.48
2018-08-24T01:59:59.686Z,100016.44
2018-08-24T02:03:02.826Z,100015.05
2018-08-24T02:06:07.143Z,100016.77
2018-08-24T02:09:11.654Z,100013.20
2018-08-24T02:12:20.195Z,100008.09
2018-08-24T02:15:23.470Z,100012.34
2018-08-24T02:18:31.898Z,100013.80
2018-08-24T02:21:40.344Z,100013.97
2018-08-24T02:24:43.534Z,100023.80
2018-08-24T02:27:46.738Z,100019.21
2018-08-24T02:30:50.569Z,100017.47
2018-08-24T02:33:53.712Z,100000.91
2018-08-24T02:36:57.117Z,100005.53
2018-08-24T02:40:00.319Z,99996.34
2018-08-24T02:43:04.447Z,99997.50
2018-08-24T02:46:07.708Z,99993.48
2018-08-24T02:49:11.926Z,99997.67
2018-08-24T02:52:15.211Z,99997.96
2018-08-24T02:55:18.859Z,99998.39
2018-08-24T02:58:22.151Z,100000.82
2018-08-24T03:01:25.370Z,99980.48
2018-08-24T03:04:28.571Z,99975.27
2018-08-24T03:07:31.752Z,99974.69
2018-08-24T03:10:34.923Z,99974.55
2018-08-24T03:13:38.117Z,99966.38
2018-08-24T03:16:45.465Z,99965.81
2018-08-24T03:19:48.599Z,99968.98
2018-08-24T03:22:51.812Z,99975.48
2018-08-24T03:25:54.969Z,99975.19
2018-08-24T03:28:58.290Z,99981.72
2018-08-24T03:32:07.380Z,99975.34
2018-08-24T03:35:10.521Z,99976.33
2018-08-24T03:38:13.728Z,99985.03
2018-08-24T03:41:16.934Z,99984.58
2018-08-24T03:44:20.102Z,99989.42
2018-08-24T03:47:24.549Z,99986.98
2018-08-24T03:50:27.812Z,99983.56
2018-08-24T03:53:30.978Z,99980.23
2018-08-24T03:56:34.134Z,99973.34
2018-08-24T03:59:37.422Z,99969.13
2018-08-24T04:02:40.568Z,99965.92
2018-08-24T04:05:43.866Z,99965.72
2018-08-24T04:08:47.076Z,99974.05
2018-08-24T04:11:50.340Z,99981.23
2018-08-24T04:14:53.502Z,99989.84
2018-08-24T04:17:56.732Z,100001.05
2018-08-24T04:21:00.492Z,99991.00
2018-08-24T04:24:03.795Z,99998.45
2018-08-24T04:27:07.134Z,99996.58
2018-08-24T04:30:11.486Z,99987.78
2018-08-24T04:33:15.334Z,99985.56
2018-08-24T04:36:18.585Z,99982.69
2018-08-24T04:39:21.833Z,99994.05
2018-08-24T04:42:25.061Z,99987.60
2018-08-24T04:45:28.322Z,99979.45
2018-08-24T04:48:31.507Z,99976.03
2018-08-24T04:51:34.821Z,99989.42
2018-08-24T04:54:38.209Z,99984.09
2018-08-24T04:57:41.411Z,99996.59
2018-08-24T05:00:44.806Z,99995.52
2018-08-24T05:03:48.056Z,99988.09
2018-08-24T05:06:51.303Z,99989.88
2018-08-24T05:09:54.601Z,99992.44
2018-08-24T05:12:57.837Z,99981.30
2018-08-24T05:16:01.482Z,99981.95
2018-08-24T05:19:04.704Z,99984.15
2018-08-24T05:22:07.987Z,99984.81
2018-08-24T05:25:11.214Z,99986.02
2018-08-24T05:28:15.040Z,99980.70
2018-08-24T05:31:18.120Z,99992.16
2018-08-24T05:34:21.414Z,99990.93
2018-08-24T05:37:24.752Z,99987.49
2018-08-24T05:40:28.016Z,99999.51
2018-08-24T05:43:31.377Z,99998.20
2018-08-24T05:46:34.817Z,99999.48
2018-08-24T05:49:38.770Z,100005.52
2018-08-24T05:52:42.069Z,100011.72
2018-08-24T05:55:45.497Z,100009.12
2018-08-24T05:58:49.030Z,100015.44
2018-08-24T06:01:52.275Z,100021.05
2018-08-24T06:04:55.915Z,100018.79
2018-08-24T06:07:59.176Z,100025.56
2018-08-24T06:11:03.035Z,100017.11
2018-08-24T06:14:06.325Z,100020.92
2018-08-24T06:17:14.842Z,100018.45
2018-08-24T06:20:18.514Z,100018.20
2018-08-24T06:23:21.767Z,100029.00
2018-08-24T06:26:25.000Z,100032.45
2018-08-24T06:29:28.318Z,100048.27
2018-08-24T06:32:31.554Z,100053.81
2018-08-24T06:35:34.842Z,100056.06
2018-08-24T06:38:38.083Z,100045.98
2018-08-24T06:41:42.127Z,100046.30
2018-08-24T06:44:59.955Z,100050.84
2018-08-24T06:48:03.290Z,100034.85
2018-08-24T06:51:06.813Z,100031.00
2018-08-24T06:54:10.022Z,100035.30
2018-08-24T06:57:13.360Z,100037.83
2018-08-24T07:00:20.738Z,100042.29
2018-08-24T07:03:23.974Z,100039.41
2018-08-24T07:06:27.198Z,100058.60
2018-08-24T07:09:30.473Z,100054.19
2018-08-24T07:12:33.791Z,100047.19
2018-08-24T07:15:37.023Z,100049.57
2018-08-24T07:18:41.617Z,100054.63
2018-08-24T07:21:45.118Z,100042.46
2018-08-24T07:24:48.748Z,100045.84
2018-08-24T07:27:52.039Z,100048.30
2018-08-24T07:30:55.404Z,100056.80
2018-08-24T07:33:58.845Z,100057.77
2018-08-24T07:37:02.089Z,100073.12
2018-08-24T07:40:05.321Z,100061.81
2018-08-24T07:43:08.614Z,100062.98
2018-08-24T07:46:11.871Z,100075.05
2018-08-24T07:49:15.992Z,100071.23
2018-08-24T07:52:21.156Z,100077.70
2018-08-24T07:55:25.821Z,100070.30
2018-08-24T07:58:29.909Z,100065.55
2018-08-24T08:01:33.101Z,100061.39
2018-08-24T08:04:36.392Z,100070.53
2018-08-24T08:07:43.437Z,100086.66
2018-08-24T08:10:48.685Z,100087.84
2018-08-24T08:13:58.128Z,100081.16
2018-08-24T08:17:02.784Z,100093.09
2018-08-24T08:20:08.098Z,100086.88
2018-08-24T08:23:34.149Z,100090.63
2018-08-24T08:26:59.078Z,100094.34
2018-08-24T08:30:04.722Z,100101.37
2018-08-24T08:33:09.282Z,100091.48
2018-08-24T08:36:13.559Z,100106.78
2018-08-24T08:39:16.931Z,100106.41
2018-08-24T08:46:28.069Z,100108.41
2018-08-24T08:49:36.664Z,100121.51
2018-08-24T08:52:43.806Z,100120.77
2018-08-24T08:55:51.894Z,100117.73
2018-08-24T08:59:05.369Z,100115.13
2018-08-24T09:02:39.144Z,100115.52
2018-08-24T09:05:54.013Z,100121.27
2018-08-24T09:21:16.645Z,100126.23
2018-08-24T09:24:25.269Z,100128.27
2018-08-24T09:28:32.164Z,100120.33
2018-08-24T09:31:37.852Z,100121.51
2018-08-24T09:34:41.289Z,100124.04
2018-08-24T09:37:45.842Z,100120.61
2018-08-24T09:40:56.210Z,100124.63
2018-08-24T09:44:00.626Z,100122.22
2018-08-24T09:47:09.766Z,100124.47
2018-08-24T09:50:18.436Z,100124.72
2018-08-24T09:53:27.100Z,100130.62
2018-08-24T09:56:31.479Z,100136.25
2018-08-24T09:59:35.596Z,100139.78
2018-08-24T10:02:42.840Z,100134.27
2018-08-24T10:07:54.204Z,100139.24
2018-08-24T10:10:57.641Z,100142.47
2018-08-24T10:14:00.858Z,100148.17
2018-08-24T10:17:04.364Z,100141.87
2018-08-24T10:20:07.735Z,100133.17
2018-08-24T10:23:11.547Z,100138.62
2018-08-24T10:26:14.952Z,100140.20
2018-08-24T10:29:18.332Z,100136.21
2018-08-24T10:32:21.635Z,100135.42
2018-08-24T10:35:25.567Z,100137.03
2018-08-24T10:38:29.314Z,100132.15
2018-08-24T10:41:32.639Z,100139.28
2018-08-24T10:44:36.391Z,100145.95
2018-08-24T10:47:39.681Z,100160.58
2018-08-24T10:50:43.606Z,100160.66
2018-08-24T10:53:47.055Z,100167.46
2018-08-24T10:56:50.429Z,100168.00
2018-08-24T10:59:53.729Z,100164.14
2018-08-24T11:02:57.085Z,100176.09
2018-08-24T11:06:00.627Z,100171.58
2018-08-24T11:09:05.218Z,100175.25
2018-08-24T11:12:08.509Z,100185.64
2018-08-24T11:15:11.736Z,100178.41
2018-08-24T11:18:15.973Z,100184.66
2018-08-24T11:21:19.354Z,100185.86
2018-08-24T11:24:22.639Z,100200.08
2018-08-24T11:27:26.085Z,100207.13
2018-08-24T11:30:29.592Z,100225.80
2018-08-24T11:33:33.049Z,100231.34
2018-08-24T11:36:36.286Z,100235.39
2018-08-24T11:39:40.190Z,100239.66
2018-08-24T11:42:43.640Z,100240.28
2018-08-24T11:45:46.981Z,100252.44
2018-08-24T11:48:50.384Z,100247.42
2018-08-24T11:51:53.764Z,100256.77
2018-08-24T11:54:58.148Z,100251.34
2018-08-24T11:58:01.496Z,100241.86
2018-08-24T12:01:04.751Z,100249.12
2018-08-24T12:04:08.559Z,100250.33
2018-08-24T12:07:11.971Z,100222.88
2018-08-24T12:10:15.296Z,100215.14
2018-08-24T12:13:19.002Z,100212.22
2018-08-24T12:16:22.348Z,100199.97
2018-08-24T12:19:25.656Z,100196.09
2018-08-24T12:22:28.976Z,100203.22
2018-08-24T12:25:32.533Z,100193.09
2018-08-24T12:28:35.788Z,100184.17
2018-08-24T12:31:39.222Z,100200.39
2018-08-24T12:34:42.776Z,100194.83
2018-08-24T12:37:47.559Z,100196.37
2018-08-24T12:40:51.033Z,100192.71
2018-08-24T12:43:54.354Z,100198.98
2018-08-24T12:46:58.597Z,100202.30
2018-08-24T12:50:04.574Z,100193.59
2018-08-24T12:53:08.067Z,100191.92
2018-08-24T12:56:16.627Z,100182.52
2018-08-24T12:59:20.036Z,100183.05
2018-08-24T13:02:23.379Z,100192.48
2018-08-24T13:05:26.785Z,100185.72
2018-08-24T13:08:30.134Z,100191.32
2018-08-24T13:11:33.603Z,100176.47
2018-08-24T13:14:36.942Z,100184.95
2018-08-24T13:17:40.207Z,100179.20
2018-08-24T13:20:43.568Z,100185.90
2018-08-24T13:23:46.874Z,100176.64
2018-08-24T13:26:50.316Z,100177.61
2018-08-24T13:29:53.610Z,100188.46
2018-08-24T13:32:56.999Z,100197.59
2018-08-24T13:36:00.271Z,100196.67
2018-08-24T13:39:04.625Z,100195.09
2018-08-24T13:42:07.981Z,100205.45
2018-08-24T13:45:11.388Z,100201.28
2018-08-24T13:48:14.859Z,100210.08
2018-08-24T13:51:18.199Z,100218.57
2018-08-24T13:54:21.545Z,100213.59
2018-08-24T13:57:24.925Z,100210.52
2018-08-24T14:00:28.449Z,100205.66
2018-08-24T14:03:31.784Z,100202.56
2018-08-24T14:06:35.031Z,100219.95
2018-08-24T14:09:38.481Z,100200.53
2018-08-24T14:12:41.733Z,100194.27
2018-08-24T14:15:45.108Z,100196.63
2018-08-24T14:18:48.379Z,100205.86
2018-08-24T14:21:51.771Z,100209.30
2018-08-24T14:24:55.124Z,100198.53
2018-08-24T14:27:58.565Z,100205.06
2018-08-24T14:31:02.111Z,100207.15
2018-08-24T14:34:05.497Z,100210.79
2018-08-24T14:37:09.055Z,100198.19
2018-08-24T14:40:12.385Z,100192.41
2018-08-24T14:43:15.678Z,100184.62
2018-08-24T14:46:19.190Z,100187.47
2018-08-24T14:49:22.623Z,100193.53
2018-08-24T14:52:26.318Z,100190.42
2018-08-24T14:55:29.797Z,100191.50
2018-08-24T14:58:33.450Z,100183.20
2018-08-24T15:01:36.837Z,100192.45
2018-08-24T15:04:40.290Z,100181.28
2018-08-24T15:07:43.776Z,100189.82
2018-08-24T15:10:47.101Z,100187.36
2018-08-24T15:13:50.552Z,100177.83
2018-08-24T15:16:53.916Z,100190.74
2018-08-24T15:19:57.344Z,100180.92
2018-08-24T15:23:00.911Z,100185.55
2018-08-24T15:26:04.559Z,100178.30
2018-08-24T15:29:08.003Z,100184.61
2018-08-24T15:32:11.502Z,100179.41
2018-08-24T15:35:15.227Z,100188.09
2018-08-24T15:38:19.687Z,100181.41
2018-08-24T15:41:23.214Z,100192.73
2018-08-24T15:44:27.643Z,100191.25
2018-08-24T15:47:31.207Z,100181.42
2018-08-24T15:50:35.279Z,100182.45
2018-08-24T15:53:38.958Z,100180.28
2018-08-24T15:56:42.361Z,100186.77
2018-08-24T16:00:02.369Z,100205.45
2018-08-24T16:03:05.996Z,100195.20
2018-08-24T16:06:10.329Z,100199.59
2018-08-24T16:09:14.377Z,100195.77
2018-08-24T16:12:17.860Z,100199.21
2018-08-24T16:15:21.465Z,100189.81
2018-08-24T16:18:25.489Z,100194.00
2018-08-24T16:21:28.861Z,100193.67
2018-08-24T16:24:32.440Z,100187.67
2018-08-24T16:27:36.906Z,100198.53
2018-08-24T16:30:40.388Z,100209.91
2018-08-24T16:33:43.860Z,100208.45
2018-08-24T16:36:48.202Z,100209.40
2018-08-24T16:39:51.740Z,100213.11
2018-08-24T16:42:55.259Z,100212.72
2018-08-24T16:45:58.645Z,100222.08
2018-08-24T16:49:02.606Z,100213.67
2018-08-24T16:52:06.241Z,100219.54
2018-08-24T16:55:09.552Z,100218.89
2018-08-24T16:58:13.091Z,100222.47
2018-08-24T17:01:16.984Z,100219.96
2018-08-24T17:04:20.454Z,100219.05
2018-08-24T17:07:23.837Z,100220.91
2018-08-24T17:10:27.573Z,100216.84
2018-08-24T17:13:31.240Z,100210.26
2018-08-24T17:16:35.579Z,100211.44
2018-08-24T17:19:39.151Z,100201.58
2018-08-24T17:22:42.861Z,100207.80
2018-08-24T17:25:46.806Z,100203.76
2018-08-24T17:28:50.445Z,100208.30
2018-08-24T17:31:53.933Z,100213.17
2018-08-24T17:34:57.600Z,100216.45
2018-08-24T17:38:01.014Z,100218.89
2018-08-24T17:41:04.736Z,100212.30
2018-08-24T17:44:08.351Z,100223.22
2018-08-24T17:47:11.821Z,100227.98
2018-08-24T17:50:15.393Z,100221.03
2018-08-24T17:53:18.886Z,100227.63
2018-08-24T17:56:22.487Z,100239.01
2018-08-24T17:59:26.030Z,100234.46
2018-08-24T18:02:29.763Z,100237.23
2018-08-24T18:05:33.446Z,100239.66
2018-08-24T18:08:37.061Z,100247.31
2018-08-24T18:11:41.389Z,100255.12
2018-08-24T18:14:45.067Z,100251.08
2018-08-24T18:17:48.965Z,100261.39
2018-08-24T18:20:53.644Z,100260.38
2018-08-24T18:23:57.247Z,100257.03
2018-08-24T18:27:00.978Z,100266.88
2018-08-24T18:30:04.744Z,100274.67
2018-08-24T18:33:08.621Z,100272.30
2018-08-24T18:36:12.243Z,100289.91
2018-08-24T18:39:15.946Z,100287.41
2018-08-24T18:42:20.253Z,100283.98
2018-08-24T18:45:24.024Z,100288.58
2018-08-24T18:48:27.839Z,100298.39
2018-08-24T18:51:32.046Z,100300.97
2018-08-24T18:54:35.638Z,100304.52
2018-08-24T18:57:39.651Z,100310.95
2018-08-24T19:00:43.968Z,100315.87
2018-08-24T19:03:47.873Z,100318.05
2018-08-24T19:06:52.114Z,100315.86
2018-08-24T19:09:55.650Z,100317.54
2018-08-24T19:13:00.275Z,100313.69
2018-08-24T19:16:04.159Z,100314.66
2018-08-24T19:19:13.236Z,100317.91
2018-08-24T19:22:17.086Z,100316.02
2018-08-24T19:25:20.959Z,100324.81
2018-08-24T19:28:29.740Z,100335.64
2018-08-24T19:31:33.538Z,100336.33
2018-08-24T19:34:37.568Z,100334.63
2018-08-24T19:37:47.919Z,100338.70
2018-08-24T19:40:56.696Z,100341.41
2018-08-24T19:44:00.651Z,100343.08
2018-08-24T19:47:07.844Z,100342.03
2018-08-24T19:50:11.343Z,100341.17
2018-08-24T19:53:15.005Z,100341.17
2018-08-24T19:56:18.760Z,100336.09
2018-08-24T19:59:22.363Z,100331.04
2018-08-24T20:02:26.210Z,100333.05
2018-08-24T20:05:30.282Z,100337.27
2018-08-24T20:08:39.335Z,100333.38
2018-08-24T20:11:43.603Z,100335.25
2018-08-24T20:14:52.869Z,100337.27
2018-08-24T20:17:56.386Z,100335.56
2018-08-24T20:21:00.205Z,100336.42
2018-08-24T20:24:03.742Z,100334.73
2018-08-24T20:27:07.408Z,100337.25
2018-08-24T20:30:11.516Z,100338.25
2018-08-24T20:33:15.634Z,100338.59
2018-08-24T20:36:19.271Z,100344.66
2018-08-24T20:39:22.771Z,100341.95
2018-08-24T20:42:26.507Z,100348.03
2018-08-24T20:45:29.937Z,100346.33
2018-08-24T20:48:33.547Z,100349.20
2018-08-24T20:51:37.130Z,100351.24
2018-08-24T20:54:40.703Z,100349.86
2018-08-24T20:57:44.860Z,100351.55
2018-08-24T21:00:48.443Z,100351.02
2018-08-24T21:03:52.220Z,100359.63
2018-08-24T21:06:55.698Z,100360.78
2018-08-24T21:09:59.261Z,100362.95
2018-08-24T21:13:03.094Z,100363.45
2018-08-24T21:16:06.858Z,100361.41
2018-08-24T21:19:10.539Z,100367.14
2018-08-24T21:22:14.201Z,100364.28
2018-08-24T21:25:17.712Z,100366.52
2018-08-24T21:28:21.218Z,100374.85
2018-08-24T21:31:24.680Z,100370.09
2018-08-24T21:34:30.877Z,100375.66
2018-08-24T21:37:34.618Z,100373.37
2018-08-24T21:40:38.005Z,100369.73
2018-08-24T21:43:41.616Z,100374.42
2018-08-24T21:46:45.401Z,100365.77
2018-08-24T21:49:48.792Z,100371.74
2018-08-24T21:52:52.266Z,100370.14
2018-08-24T21:55:55.647Z,100363.72
2018-08-24T21:58:59.342Z,100364.76
2018-08-24T22:02:02.879Z,100366.96
2018-08-24T22:05:06.197Z,100373.39
2018-08-24T22:08:09.763Z,100369.28
2018-08-24T22:11:13.057Z,100368.95
2018-08-24T22:14:16.403Z,100371.92
2018-08-24T22:17:19.764Z,100374.04
2018-08-24T22:20:23.092Z,100374.33
2018-08-24T22:23:26.393Z,100374.28
2018-08-24T22:26:29.729Z,100386.88
2018-08-24T22:29:33.045Z,100386.41
2018-08-24T22:32:36.334Z,100387.91
2018-08-24T22:35:39.699Z,100387.10
2018-08-24T22:38:42.945Z,100387.50
2018-08-24T22:41:46.228Z,100383.75
2018-08-24T22:44:49.580Z,100385.78
2018-08-24T22:47:53.534Z,100389.47
2018-08-24T22:50:58.443Z,100395.55
2018-08-24T22:54:01.731Z,100392.71
2018-08-24T22:57:05.189Z,100381.20
2018-08-24T23:00:08.564Z,100377.91
2018-08-24T23:03:12.070Z,100374.08
2018-08-24T23:06:15.477Z,100366.54
2018-08-24T23:09:18.888Z,100364.60
2018-08-24T23:12:22.159Z,100368.84
2018-08-24T23:15:26.154Z,100376.05
2018-08-24T23:18:29.479Z,100360.53
2018-08-24T23:21:32.809Z,100365.77
2018-08-24T23:24:36.268Z,100365.30
2018-08-24T23:27:39.599Z,100357.88
2018-08-24T23:30:42.976Z,100356.89
2018-08-24T23:33:46.439Z,100355.00
2018-08-24T23:36:49.679Z,100353.30
2018-08-24T23:39:52.897Z,100357.86
2018-08-24T23:42:56.171Z,100357.74
2018-08-24T23:45:59.574Z,100364.55
2018-08-24T23:49:03.003Z,100365.98
2018-08-24T23:52:06.275Z,100362.75
2018-08-24T23:55:09.695Z,100360.34
2018-08-24T23:58:12.960Z,100361.95
